sensor_id;sensor_type;location;lat;lon;timestamp;pressure;altitude;pressure_sealevel;temperature;humidity
29839;BME280;18669;53.356;-1.464;2023-04-25T00:01:06;100702.75;;;3.12;100.00
29839;BME280;18669;53.356;-1.464;2023-04-25T00:03:51;100700.19;;;3.13;100.00
29839;BME280;18669;53.356;-1.464;2023-04-25T00:07:06;100705.47;;;3.21;100.00
29839;BME280;18669;53.356;-1.464;2023-04-25T00:09:52;100702.59;;;2.98;100.00
29839;BME280;18669;53.356;-1.464;2023-04-25T00:12:36;100704.22;;;2.88;100.00
29839;BME280;18669;53.356;-1.464;2023-04-25T00:15:22;100700.69;;;2.83;100.00
29839;BME280;18669;53.356;-1.464;2023-04-25T00:18:07;100697.19;;;2.81;100.00
29839;BME280;18669;53.356;-1.464;2023-04-25T00:20:52;100694.56;;;2.76;100.00
29839;BME280;18669;53.356;-1.464;2023-04-25T00:23:37;100695.38;;;2.74;100.00
29839;BME280;18669;53.356;-1.464;2023-04-25T00:26:22;100702.19;;;2.64;100.00
29839;BME280;18669;53.356;-1.464;2023-04-25T00:29:07;100699.56;;;2.62;100.00
29839;BME280;18669;53.356;-1.464;2023-04-25T00:31:52;100711.72;;;2.65;100.00
29839;BME280;18669;53.356;-1.464;2023-04-25T00:34:37;100706.47;;;2.60;100.00
29839;BME280;18669;53.356;-1.464;2023-04-25T00:37:22;100702.91;;;2.53;100.00
29839;BME280;18669;53.356;-1.464;2023-04-25T00:40:07;100703.75;;;2.51;100.00
29839;BME280;18669;53.356;-1.464;2023-04-25T00:42:53;100705.50;;;2.53;100.00
29839;BME280;18669;53.356;-1.464;2023-04-25T00:45:39;100714.13;;;2.52;100.00
29839;BME280;18669;53.356;-1.464;2023-04-25T00:48:24;100708.84;;;2.45;100.00
29839;BME280;18669;53.356;-1.464;2023-04-25T00:51:16;100714.16;;;2.54;100.00
29839;BME280;18669;53.356;-1.464;2023-04-25T00:54:03;100716.53;;;2.38;100.00
29839;BME280;18669;53.356;-1.464;2023-04-25T00:56:48;100713.03;;;2.35;100.00
29839;BME280;18669;53.356;-1.464;2023-04-25T00:59:33;100712.94;;;2.30;100.00
29839;BME280;18669;53.356;-1.464;2023-04-25T01:02:18;100715.53;;;2.27;100.00
29839;BME280;18669;53.356;-1.464;2023-04-25T01:05:04;100712.91;;;2.26;100.00
29839;BME280;18669;53.356;-1.464;2023-04-25T01:07:49;100717.22;;;2.25;100.00
29839;BME280;18669;53.356;-1.464;2023-04-25T01:10:33;100722.38;;;2.23;100.00
29839;BME280;18669;53.356;-1.464;2023-04-25T01:13:19;100713.63;;;2.17;100.00
29839;BME280;18669;53.356;-1.464;2023-04-25T01:16:04;100718.03;;;2.21;100.00
29839;BME280;18669;53.356;-1.464;2023-04-25T01:18:49;100706.69;;;2.16;100.00
29839;BME280;18669;53.356;-1.464;2023-04-25T01:21:35;100714.44;;;2.14;100.00
29839;BME280;18669;53.356;-1.464;2023-04-25T01:24:20;100704.06;;;2.14;100.00
29839;BME280;18669;53.356;-1.464;2023-04-25T01:27:06;100704.91;;;2.13;100.00
29839;BME280;18669;53.356;-1.464;2023-04-25T01:29:51;100705.75;;;2.12;100.00
29839;BME280;18669;53.356;-1.464;2023-04-25T01:32:55;100705.94;;;2.23;100.00
29839;BME280;18669;53.356;-1.464;2023-04-25T01:35:40;100701.41;;;2.09;100.00
29839;BME280;18669;53.356;-1.464;2023-04-25T01:38:25;100708.25;;;2.03;100.00
29839;BME280;18669;53.356;-1.464;2023-04-25T01:41:10;100692.66;;;2.03;100.00
29839;BME280;18669;53.356;-1.464;2023-04-25T01:43:55;100704.78;;;2.04;100.00
29839;BME280;18669;53.356;-1.464;2023-04-25T01:46:40;100694.25;;;1.93;100.00
29839;BME280;18669;53.356;-1.464;2023-04-25T01:49:24;100710.72;;;1.97;100.00
29839;BME280;18669;53.356;-1.464;2023-04-25T01:52:09;100710.72;;;1.97;100.00
29839;BME280;18669;53.356;-1.464;2023-04-25T01:54:57;100709.09;;;2.02;100.00
29839;BME280;18669;53.356;-1.464;2023-04-25T01:57:41;100707.50;;;2.13;100.00
29839;BME280;18669;53.356;-1.464;2023-04-25T02:00:26;100712.38;;;1.91;100.00
29839;BME280;18669;53.356;-1.464;2023-04-25T02:03:11;100702.78;;;1.86;100.00
29839;BME280;18669;53.356;-1.464;2023-04-25T02:05:56;100716.69;;;1.91;100.00
29839;BME280;18669;53.356;-1.464;2023-04-25T02:08:41;100720.06;;;1.85;100.00
29839;BME280;18669;53.356;-1.464;2023-04-25T02:11:26;100720.88;;;1.83;100.00
29839;BME280;18669;53.356;-1.464;2023-04-25T02:14:10;100719.94;;;1.79;100.00
29839;BME280;18669;53.356;-1.464;2023-04-25T02:16:58;100715.81;;;1.89;100.00
29839;BME280;18669;53.356;-1.464;2023-04-25T02:19:44;100720.94;;;1.86;100.00
29839;BME280;18669;53.356;-1.464;2023-04-25T02:22:29;100728.66;;;1.83;100.00
29839;BME280;18669;53.356;-1.464;2023-04-25T02:25:15;100729.47;;;1.78;100.00
29839;BME280;18669;53.356;-1.464;2023-04-25T02:28:00;100730.19;;;1.70;100.00
29839;BME280;18669;53.356;-1.464;2023-04-25T02:30:45;100732.72;;;1.68;100.00
29839;BME280;18669;53.356;-1.464;2023-04-25T02:33:30;100734.47;;;1.68;100.00
29839;BME280;18669;53.356;-1.464;2023-04-25T02:36:16;100732.88;;;1.76;100.00
29839;BME280;18669;53.356;-1.464;2023-04-25T02:39:01;100737.97;;;1.70;100.00
29839;BME280;18669;53.356;-1.464;2023-04-25T02:41:46;100731.78;;;1.63;100.00
29839;BME280;18669;53.356;-1.464;2023-04-25T02:44:30;100737.88;;;1.65;100.00
29839;BME280;18669;53.356;-1.464;2023-04-25T02:47:15;100735.28;;;1.65;100.00
29839;BME280;18669;53.356;-1.464;2023-04-25T02:50:00;100730.13;;;1.67;100.00
29839;BME280;18669;53.356;-1.464;2023-04-25T02:52:45;100730.09;;;1.65;100.00
29839;BME280;18669;53.356;-1.464;2023-04-25T02:55:30;100737.00;;;1.64;100.00
29839;BME280;18669;53.356;-1.464;2023-04-25T02:58:15;100742.91;;;1.57;100.00
29839;BME280;18669;53.356;-1.464;2023-04-25T03:01:00;100738.56;;;1.55;100.00
29839;BME280;18669;53.356;-1.464;2023-04-25T03:03:44;100742.81;;;1.51;100.00
29839;BME280;18669;53.356;-1.464;2023-04-25T03:06:29;100742.72;;;1.46;100.00
29839;BME280;18669;53.356;-1.464;2023-04-25T03:09:15;100740.19;;;1.49;100.00
29839;BME280;18669;53.356;-1.464;2023-04-25T03:12:00;100734.13;;;1.49;100.00
29839;BME280;18669;53.356;-1.464;2023-04-25T03:14:48;100738.38;;;1.45;100.00
29839;BME280;18669;53.356;-1.464;2023-04-25T03:17:33;100747.91;;;1.46;100.00
29839;BME280;18669;53.356;-1.464;2023-04-25T03:20:17;100753.97;;;1.47;100.00
29839;BME280;18669;53.356;-1.464;2023-04-25T03:23:03;100755.63;;;1.43;100.00
29839;BME280;18669;53.356;-1.464;2023-04-25T03:25:47;100748.63;;;1.38;100.00
29839;BME280;18669;53.356;-1.464;2023-04-25T03:28:32;100765.22;;;1.49;100.00
29839;BME280;18669;53.356;-1.464;2023-04-25T03:31:17;100753.97;;;1.47;100.00
29839;BME280;18669;53.356;-1.464;2023-04-25T03:34:02;100754.72;;;1.40;100.00
29839;BME280;18669;53.356;-1.464;2023-04-25T03:36:47;100749.41;;;1.35;100.00
29839;BME280;18669;53.356;-1.464;2023-04-25T03:39:31;100761.59;;;1.38;100.00
29839;BME280;18669;53.356;-1.464;2023-04-25T03:42:17;100758.94;;;1.36;100.00
29839;BME280;18669;53.356;-1.464;2023-04-25T03:45:02;100759.72;;;1.32;100.00
29839;BME280;18669;53.356;-1.464;2023-04-25T03:47:47;100764.06;;;1.31;100.00
29839;BME280;18669;53.356;-1.464;2023-04-25T03:50:31;100762.31;;;1.32;100.00
29839;BME280;18669;53.356;-1.464;2023-04-25T03:53:16;100751.81;;;1.24;100.00
29839;BME280;18669;53.356;-1.464;2023-04-25T03:56:01;100758.69;;;1.22;100.00
29839;BME280;18669;53.356;-1.464;2023-04-25T03:58:47;100756.94;;;1.21;100.00
29839;BME280;18669;53.356;-1.464;2023-04-25T04:01:32;100762.06;;;1.18;100.00
29839;BME280;18669;53.356;-1.464;2023-04-25T04:04:17;100764.72;;;1.21;100.00
29839;BME280;18669;53.356;-1.464;2023-04-25T04:07:02;100758.63;;;1.19;100.00
29839;BME280;18669;53.356;-1.464;2023-04-25T04:09:46;100763.72;;;1.16;100.00
29839;BME280;18669;53.356;-1.464;2023-04-25T04:12:32;100763.72;;;1.14;100.00
29839;BME280;18669;53.356;-1.464;2023-04-25T04:15:16;100763.66;;;1.11;100.00
29839;BME280;18669;53.356;-1.464;2023-04-25T04:18:01;100770.53;;;1.09;100.00
29839;BME280;18669;53.356;-1.464;2023-04-25T04:20:47;100774.88;;;1.12;100.00
29839;BME280;18669;53.356;-1.464;2023-04-25T04:23:32;100773.13;;;1.09;100.00
29839;BME280;18669;53.356;-1.464;2023-04-25T04:26:18;100761.84;;;1.09;100.00
29839;BME280;18669;53.356;-1.464;2023-04-25T04:29:03;100776.50;;;1.07;100.00
29839;BME280;18669;53.356;-1.464;2023-04-25T04:31:49;100775.69;;;1.09;100.00
29839;BME280;18669;53.356;-1.464;2023-04-25T04:34:34;100788.72;;;1.12;100.00
29839;BME280;18669;53.356;-1.464;2023-04-25T04:37:19;100792.94;;;1.09;100.00
29839;BME280;18669;53.356;-1.464;2023-04-25T04:40:05;100784.38;;;1.11;100.00
29839;BME280;18669;53.356;-1.464;2023-04-25T04:42:50;100787.72;;;1.06;100.00
29839;BME280;18669;53.356;-1.464;2023-04-25T04:45:34;100785.13;;;1.06;100.00
29839;BME280;18669;53.356;-1.464;2023-04-25T04:48:19;100798.13;;;1.09;100.00
29839;BME280;18669;53.356;-1.464;2023-04-25T04:51:06;100797.28;;;1.10;100.00
29839;BME280;18669;53.356;-1.464;2023-04-25T04:53:51;100797.19;;;1.03;100.00
29839;BME280;18669;53.356;-1.464;2023-04-25T04:56:35;100797.22;;;1.05;100.00
29839;BME280;18669;53.356;-1.464;2023-04-25T04:59:20;100793.56;;;0.95;100.00
29839;BME280;18669;53.356;-1.464;2023-04-25T05:02:05;100812.59;;;0.97;100.00
29839;BME280;18669;53.356;-1.464;2023-04-25T05:04:51;100809.16;;;0.98;100.00
29839;BME280;18669;53.356;-1.464;2023-04-25T05:07:36;100821.16;;;0.95;100.00
29839;BME280;18669;53.356;-1.464;2023-04-25T05:10:21;100809.94;;;0.94;100.00
29839;BME280;18669;53.356;-1.464;2023-04-25T05:13:06;100815.19;;;0.97;100.00
29839;BME280;18669;53.356;-1.464;2023-04-25T05:15:51;100803.06;;;0.96;100.00
29839;BME280;18669;53.356;-1.464;2023-04-25T05:18:36;100808.97;;;0.91;100.00
29839;BME280;18669;53.356;-1.464;2023-04-25T05:21:22;100807.91;;;0.81;100.00
29839;BME280;18669;53.356;-1.464;2023-04-25T05:24:07;100810.63;;;0.87;100.00
29839;BME280;18669;53.356;-1.464;2023-04-25T05:26:52;100814.97;;;0.86;100.00
29839;BME280;18669;53.356;-1.464;2023-04-25T05:29:37;100817.59;;;0.89;100.00
29839;BME280;18669;53.356;-1.464;2023-04-25T05:32:22;100814.16;;;0.91;100.00
29839;BME280;18669;53.356;-1.464;2023-04-25T05:35:07;100821.22;;;0.98;100.00
29839;BME280;18669;53.356;-1.464;2023-04-25T05:37:53;100816.16;;;1.02;100.00
29839;BME280;18669;53.356;-1.464;2023-04-25T05:40:38;100807.56;;;1.03;100.00
29839;BME280;18669;53.356;-1.464;2023-04-25T05:43:23;100815.56;;;1.16;100.00
29839;BME280;18669;53.356;-1.464;2023-04-25T05:46:07;100814.72;;;1.17;100.00
29839;BME280;18669;53.356;-1.464;2023-04-25T05:48:52;100823.50;;;1.24;100.00
29839;BME280;18669;53.356;-1.464;2023-04-25T05:51:37;100812.25;;;1.23;100.00
29839;BME280;18669;53.356;-1.464;2023-04-25T05:54:22;100808.84;;;1.26;100.00
29839;BME280;18669;53.356;-1.464;2023-04-25T05:57:07;100823.72;;;1.34;100.00
29839;BME280;18669;53.356;-1.464;2023-04-25T05:59:53;100824.09;;;1.53;100.00
29839;BME280;18669;53.356;-1.464;2023-04-25T06:02:38;100825.78;;;1.51;100.00
29839;BME280;18669;53.356;-1.464;2023-04-25T06:05:23;100816.41;;;1.58;100.00
29839;BME280;18669;53.356;-1.464;2023-04-25T06:08:08;100815.66;;;1.63;100.00
29839;BME280;18669;53.356;-1.464;2023-04-25T06:10:52;100813.31;;;1.79;100.00
29839;BME280;18669;53.356;-1.464;2023-04-25T06:13:37;100822.97;;;1.86;100.00
29839;BME280;18669;53.356;-1.464;2023-04-25T06:16:22;100832.56;;;1.90;100.00
29839;BME280;18669;53.356;-1.464;2023-04-25T06:19:07;100833.59;;;1.99;100.00
29839;BME280;18669;53.356;-1.464;2023-04-25T06:21:52;100844.28;;;2.17;100.00
29839;BME280;18669;53.356;-1.464;2023-04-25T06:24:37;100846.13;;;2.24;100.00
29839;BME280;18669;53.356;-1.464;2023-04-25T06:27:22;100855.16;;;2.47;100.00
29839;BME280;18669;53.356;-1.464;2023-04-25T06:30:07;100854.78;;;2.77;100.00
29839;BME280;18669;53.356;-1.464;2023-04-25T06:32:52;100847.25;;;2.96;100.00
29839;BME280;18669;53.356;-1.464;2023-04-25T06:35:40;100833.56;;;3.11;100.00
29839;BME280;18669;53.356;-1.464;2023-04-25T06:38:25;100843.44;;;3.34;100.00
29839;BME280;18669;53.356;-1.464;2023-04-25T06:41:10;100839.16;;;3.42;100.00
29839;BME280;18669;53.356;-1.464;2023-04-25T06:43:55;100842.81;;;3.58;100.00
29839;BME280;18669;53.356;-1.464;2023-04-25T06:46:39;100847.41;;;3.78;100.00
29839;BME280;18669;53.356;-1.464;2023-04-25T06:49:24;100858.81;;;3.92;100.00
29839;BME280;18669;53.356;-1.464;2023-04-25T06:52:09;100856.34;;;4.05;100.00
29839;BME280;18669;53.356;-1.464;2023-04-25T06:54:55;100859.09;;;4.20;100.00
29839;BME280;18669;53.356;-1.464;2023-04-25T06:57:39;100866.22;;;4.38;100.00
29839;BME280;18669;53.356;-1.464;2023-04-25T07:00:24;100860.22;;;4.50;100.00
29839;BME280;18669;53.356;-1.464;2023-04-25T07:03:10;100863.78;;;4.61;100.00
29839;BME280;18669;53.356;-1.464;2023-04-25T07:05:55;100863.91;;;4.77;100.00
29839;BME280;18669;53.356;-1.464;2023-04-25T07:08:41;100859.59;;;4.84;99.22
29839;BME280;18669;53.356;-1.464;2023-04-25T07:11:26;100854.53;;;5.07;96.43
29839;BME280;18669;53.356;-1.464;2023-04-25T07:14:11;100857.16;;;5.13;94.91
29839;BME280;18669;53.356;-1.464;2023-04-25T07:16:56;100855.50;;;5.26;91.29
29839;BME280;18669;53.356;-1.464;2023-04-25T07:19:41;100858.16;;;5.35;89.26
29839;BME280;18669;53.356;-1.464;2023-04-25T07:22:26;100864.31;;;5.55;89.68
29839;BME280;18669;53.356;-1.464;2023-04-25T07:25:11;100864.34;;;5.65;86.62
29839;BME280;18669;53.356;-1.464;2023-04-25T07:27:56;100861.78;;;5.82;86.37
29839;BME280;18669;53.356;-1.464;2023-04-25T07:30:41;100868.88;;;6.13;85.15
29839;BME280;18669;53.356;-1.464;2023-04-25T07:33:26;100871.47;;;6.21;78.10
29839;BME280;18669;53.356;-1.464;2023-04-25T07:36:12;100862.81;;;6.48;75.52
29839;BME280;18669;53.356;-1.464;2023-04-25T07:38:57;100864.53;;;6.86;75.02
29839;BME280;18669;53.356;-1.464;2023-04-25T07:41:41;100882.75;;;7.25;68.97
29839;BME280;18669;53.356;-1.464;2023-04-25T07:44:27;100880.03;;;7.52;64.83
29839;BME280;18669;53.356;-1.464;2023-04-25T07:47:11;100875.41;;;8.03;67.30
29839;BME280;18669;53.356;-1.464;2023-04-25T07:49:56;100872.44;;;8.55;63.96
29839;BME280;18669;53.356;-1.464;2023-04-25T07:52:42;100877.84;;;9.31;61.62
29839;BME280;18669;53.356;-1.464;2023-04-25T07:55:27;100859.94;;;9.63;56.48
29839;BME280;18669;53.356;-1.464;2023-04-25T07:58:12;100872.63;;;9.95;55.19
29839;BME280;18669;53.356;-1.464;2023-04-25T08:00:57;100880.16;;;9.58;53.79
29839;BME280;18669;53.356;-1.464;2023-04-25T08:03:42;100872.19;;;10.28;53.87
29839;BME280;18669;53.356;-1.464;2023-04-25T08:06:27;100874.19;;;11.17;50.68
29839;BME280;18669;53.356;-1.464;2023-04-25T08:09:11;100878.34;;;11.73;48.66
29839;BME280;18669;53.356;-1.464;2023-04-25T08:11:56;100881.63;;;11.40;47.60
29839;BME280;18669;53.356;-1.464;2023-04-25T08:14:41;100878.53;;;12.06;47.70
29839;BME280;18669;53.356;-1.464;2023-04-25T08:17:26;100887.34;;;12.05;46.31
29839;BME280;18669;53.356;-1.464;2023-04-25T08:20:12;100884.34;;;12.20;45.67
29839;BME280;18669;53.356;-1.464;2023-04-25T08:22:57;100880.72;;;12.24;44.11
29839;BME280;18669;53.356;-1.464;2023-04-25T08:25:42;100889.22;;;12.74;43.44
29839;BME280;18669;53.356;-1.464;2023-04-25T08:28:27;100891.97;;;12.69;42.60
29839;BME280;18669;53.356;-1.464;2023-04-25T08:31:12;100875.63;;;13.22;42.77
29839;BME280;18669;53.356;-1.464;2023-04-25T08:33:57;100884.34;;;14.44;41.72
29839;BME280;18669;53.356;-1.464;2023-04-25T08:36:42;100891.72;;;14.06;40.42
29839;BME280;18669;53.356;-1.464;2023-04-25T08:39:27;100896.88;;;14.39;41.60
29839;BME280;18669;53.356;-1.464;2023-04-25T08:42:12;100893.31;;;14.94;39.34
29839;BME280;18669;53.356;-1.464;2023-04-25T08:44:57;100897.88;;;14.90;38.02
29839;BME280;18669;53.356;-1.464;2023-04-25T08:47:45;100897.31;;;15.06;37.76
29839;BME280;18669;53.356;-1.464;2023-04-25T08:50:30;100898.97;;;14.56;36.52
29839;BME280;18669;53.356;-1.464;2023-04-25T08:53:16;100899.97;;;14.52;37.17
29839;BME280;18669;53.356;-1.464;2023-04-25T08:56:02;100902.56;;;15.07;36.93
29839;BME280;18669;53.356;-1.464;2023-04-25T08:58:50;100901.06;;;15.26;34.76
29839;BME280;18669;53.356;-1.464;2023-04-25T09:01:35;100899.41;;;15.47;34.65
29839;BME280;18669;53.356;-1.464;2023-04-25T09:04:21;100895.22;;;15.16;35.07
29839;BME280;18669;53.356;-1.464;2023-04-25T09:07:05;100897.47;;;15.01;35.49
29839;BME280;18669;53.356;-1.464;2023-04-25T09:09:50;100901.84;;;15.53;35.31
29839;BME280;18669;53.356;-1.464;2023-04-25T09:12:36;100893.81;;;15.78;34.77
29839;BME280;18669;53.356;-1.464;2023-04-25T09:15:21;100893.16;;;15.97;32.94
29839;BME280;18669;53.356;-1.464;2023-04-25T09:18:06;100895.25;;;15.63;32.23
29839;BME280;18669;53.356;-1.464;2023-04-25T09:20:52;100893.47;;;15.64;33.40
29839;BME280;18669;53.356;-1.464;2023-04-25T09:23:43;100887.16;;;16.14;33.00
29839;BME280;18669;53.356;-1.464;2023-04-25T09:26:28;100881.31;;;15.82;32.14
29839;BME280;18669;53.356;-1.464;2023-04-25T09:29:13;100885.81;;;16.26;32.95
29839;BME280;18669;53.356;-1.464;2023-04-25T09:35:03;100887.91;;;16.40;31.55
29839;BME280;18669;53.356;-1.464;2023-04-25T09:37:50;100880.81;;;18.03;30.46
29839;BME280;18669;53.356;-1.464;2023-04-25T09:40:39;100889.06;;;17.19;30.21
29839;BME280;18669;53.356;-1.464;2023-04-25T09:43:24;100892.88;;;16.48;31.06
29839;BME280;18669;53.356;-1.464;2023-04-25T09:46:10;100898.31;;;16.45;31.37
29839;BME280;18669;53.356;-1.464;2023-04-25T09:48:58;100889.16;;;16.74;30.54
29839;BME280;18669;53.356;-1.464;2023-04-25T09:51:54;100891.72;;;18.16;29.26
29839;BME280;18669;53.356;-1.464;2023-04-25T09:54:39;100895.69;;;16.88;30.04
29839;BME280;18669;53.356;-1.464;2023-04-25T09:57:24;100884.91;;;16.48;30.26
29839;BME280;18669;53.356;-1.464;2023-04-25T10:00:10;100898.81;;;16.77;30.43
29839;BME280;18669;53.356;-1.464;2023-04-25T10:02:57;100889.34;;;18.10;31.28
29839;BME280;18669;53.356;-1.464;2023-04-25T10:05:46;100888.53;;;18.63;29.21
29839;BME280;18669;53.356;-1.464;2023-04-25T10:08:36;100893.22;;;19.11;27.92
29839;BME280;18669;53.356;-1.464;2023-04-25T10:11:21;100885.13;;;18.06;28.24
29839;BME280;18669;53.356;-1.464;2023-04-25T10:14:09;100895.94;;;17.43;29.74
29839;BME280;18669;53.356;-1.464;2023-04-25T10:16:54;100895.69;;;17.69;28.94
29839;BME280;18669;53.356;-1.464;2023-04-25T10:19:40;100896.00;;;17.42;29.84
29839;BME280;18669;53.356;-1.464;2023-04-25T10:22:37;100890.81;;;17.39;28.59
29839;BME280;18669;53.356;-1.464;2023-04-25T10:25:23;100893.72;;;17.53;29.16
29839;BME280;18669;53.356;-1.464;2023-04-25T10:28:08;100906.13;;;16.27;30.33
29839;BME280;18669;53.356;-1.464;2023-04-25T10:31:08;100894.38;;;16.98;29.04
29839;BME280;18669;53.356;-1.464;2023-04-25T10:33:53;100881.22;;;17.94;28.60
29839;BME280;18669;53.356;-1.464;2023-04-25T10:36:38;100896.78;;;18.40;27.71
29839;BME280;18669;53.356;-1.464;2023-04-25T10:39:25;100883.94;;;19.36;25.91
29839;BME280;18669;53.356;-1.464;2023-04-25T10:42:11;100895.25;;;18.88;26.37
29839;BME280;18669;53.356;-1.464;2023-04-25T10:45:04;100892.84;;;19.19;27.51
29839;BME280;18669;53.356;-1.464;2023-04-25T10:47:50;100875.44;;;20.57;25.79
29839;BME280;18669;53.356;-1.464;2023-04-25T10:50:38;100886.97;;;21.63;25.11
29839;BME280;18669;53.356;-1.464;2023-04-25T10:53:30;100898.84;;;20.22;25.58
29839;BME280;18669;53.356;-1.464;2023-04-25T10:56:19;100908.75;;;17.93;27.30
29839;BME280;18669;53.356;-1.464;2023-04-25T10:59:11;100908.44;;;17.00;28.39
29839;BME280;18669;53.356;-1.464;2023-04-25T11:01:56;100905.78;;;17.00;28.35
29839;BME280;18669;53.356;-1.464;2023-04-25T11:04:41;100893.66;;;16.29;28.66
29839;BME280;18669;53.356;-1.464;2023-04-25T11:07:51;100892.41;;;17.43;28.10
29839;BME280;18669;53.356;-1.464;2023-04-25T11:10:41;100883.81;;;18.51;27.33
29839;BME280;18669;53.356;-1.464;2023-04-25T11:13:33;100888.31;;;19.03;26.98
29839;BME280;18669;53.356;-1.464;2023-04-25T11:16:24;100890.63;;;20.41;25.82
29839;BME280;18669;53.356;-1.464;2023-04-25T11:19:13;100878.91;;;18.96;27.06
29839;BME280;18669;53.356;-1.464;2023-04-25T11:22:06;100884.50;;;18.55;28.37
29839;BME280;18669;53.356;-1.464;2023-04-25T11:24:56;100895.75;;;17.48;28.73
29839;BME280;18669;53.356;-1.464;2023-04-25T11:27:54;100890.56;;;18.02;27.42
29839;BME280;18669;53.356;-1.464;2023-04-25T11:30:51;100886.53;;;18.13;27.40
29839;BME280;18669;53.356;-1.464;2023-04-25T11:33:40;100871.84;;;20.42;26.64
29839;BME280;18669;53.356;-1.464;2023-04-25T11:36:29;100872.03;;;21.58;24.84
29839;BME280;18669;53.356;-1.464;2023-04-25T11:39:19;100870.69;;;21.22;24.98
29839;BME280;18669;53.356;-1.464;2023-04-25T11:42:08;100864.69;;;21.76;24.70
29839;BME280;18669;53.356;-1.464;2023-04-25T11:44:57;100857.13;;;23.17;23.50
29839;BME280;18669;53.356;-1.464;2023-04-25T11:47:46;100861.22;;;22.97;23.14
29839;BME280;18669;53.356;-1.464;2023-04-25T11:50:35;100855.78;;;23.24;22.88
29839;BME280;18669;53.356;-1.464;2023-04-25T11:53:23;100852.09;;;24.62;21.85
29839;BME280;18669;53.356;-1.464;2023-04-25T11:56:12;100853.56;;;24.30;22.35
29839;BME280;18669;53.356;-1.464;2023-04-25T11:59:02;100844.06;;;24.73;21.61
29839;BME280;18669;53.356;-1.464;2023-04-25T12:01:49;100843.53;;;24.56;21.52
29839;BME280;18669;53.356;-1.464;2023-04-25T12:04:34;100853.56;;;22.25;22.08
29839;BME280;18669;53.356;-1.464;2023-04-25T12:07:19;100851.22;;;20.75;24.84
29839;BME280;18669;53.356;-1.464;2023-04-25T12:12:54;100844.66;;;22.52;22.98
29839;BME280;18669;53.356;-1.464;2023-04-25T12:15:40;100842.75;;;23.05;21.70
29839;BME280;18669;53.356;-1.464;2023-04-25T12:18:25;100838.69;;;23.26;21.48
29839;BME280;18669;53.356;-1.464;2023-04-25T12:21:12;100828.97;;;25.06;20.98
29839;BME280;18669;53.356;-1.464;2023-04-25T12:24:09;100841.72;;;25.38;20.84
29839;BME280;18669;53.356;-1.464;2023-04-25T12:26:58;100854.25;;;24.21;21.05
29839;BME280;18669;53.356;-1.464;2023-04-25T12:29:51;100858.78;;;22.94;21.69
29839;BME280;18669;53.356;-1.464;2023-04-25T12:32:36;100855.41;;;22.37;22.25
29839;BME280;18669;53.356;-1.464;2023-04-25T12:35:22;100852.25;;;23.24;22.07
29839;BME280;18669;53.356;-1.464;2023-04-25T12:38:06;100844.53;;;23.69;21.73
29839;BME280;18669;53.356;-1.464;2023-04-25T12:40:51;100853.84;;;24.14;21.83
29839;BME280;18669;53.356;-1.464;2023-04-25T12:43:36;100846.41;;;23.93;20.83
29839;BME280;18669;53.356;-1.464;2023-04-25T12:46:21;100852.31;;;22.16;22.20
29839;BME280;18669;53.356;-1.464;2023-04-25T12:49:08;100855.81;;;21.61;23.44
29839;BME280;18669;53.356;-1.464;2023-04-25T12:51:53;100852.34;;;20.56;23.33
29839;BME280;18669;53.356;-1.464;2023-04-25T12:54:38;100849.28;;;19.52;24.97
29839;BME280;18669;53.356;-1.464;2023-04-25T12:57:23;100848.06;;;18.55;26.25
29839;BME280;18669;53.356;-1.464;2023-04-25T13:00:08;100858.66;;;18.57;26.47
29839;BME280;18669;53.356;-1.464;2023-04-25T13:02:58;100857.72;;;18.75;24.78
29839;BME280;18669;53.356;-1.464;2023-04-25T13:05:43;100856.00;;;18.74;25.15
29839;BME280;18669;53.356;-1.464;2023-04-25T13:08:29;100860.53;;;18.72;26.01
29839;BME280;18669;53.356;-1.464;2023-04-25T13:11:14;100853.66;;;19.03;24.85
29839;BME280;18669;53.356;-1.464;2023-04-25T13:14:00;100841.56;;;20.27;24.21
29839;BME280;18669;53.356;-1.464;2023-04-25T13:16:45;100847.59;;;21.36;23.33
29839;BME280;18669;53.356;-1.464;2023-04-25T13:19:30;100848.91;;;21.57;23.19
29839;BME280;18669;53.356;-1.464;2023-04-25T13:22:15;100849.00;;;20.83;23.37
29839;BME280;18669;53.356;-1.464;2023-04-25T13:25:01;100851.72;;;19.73;24.67
29839;BME280;18669;53.356;-1.464;2023-04-25T13:27:45;100848.00;;;19.10;26.30
29839;BME280;18669;53.356;-1.464;2023-04-25T13:30:30;100846.59;;;18.67;25.95
29839;BME280;18669;53.356;-1.464;2023-04-25T13:33:15;100848.78;;;18.76;24.84
29839;BME280;18669;53.356;-1.464;2023-04-25T13:36:01;100843.06;;;19.02;24.50
29839;BME280;18669;53.356;-1.464;2023-04-25T13:38:46;100849.75;;;19.76;24.40
29839;BME280;18669;53.356;-1.464;2023-04-25T13:41:32;100840.97;;;21.56;23.09
29839;BME280;18669;53.356;-1.464;2023-04-25T13:44:17;100839.91;;;21.87;22.87
29839;BME280;18669;53.356;-1.464;2023-04-25T13:47:02;100848.13;;;21.55;22.63
29839;BME280;18669;53.356;-1.464;2023-04-25T13:49:47;100845.47;;;21.84;22.61
29839;BME280;18669;53.356;-1.464;2023-04-25T13:52:32;100837.50;;;21.83;22.35
29839;BME280;18669;53.356;-1.464;2023-04-25T13:55:17;100842.81;;;21.26;23.99
29839;BME280;18669;53.356;-1.464;2023-04-25T13:58:02;100841.19;;;20.64;24.54
29839;BME280;18669;53.356;-1.464;2023-04-25T14:00:51;100837.25;;;20.70;23.44
29839;BME280;18669;53.356;-1.464;2023-04-25T14:03:36;100831.34;;;21.10;24.25
29839;BME280;18669;53.356;-1.464;2023-04-25T14:06:21;100831.41;;;23.28;21.14
29839;BME280;18669;53.356;-1.464;2023-04-25T14:09:08;100823.03;;;22.40;21.93
29839;BME280;18669;53.356;-1.464;2023-04-25T14:11:55;100816.78;;;23.19;22.00
29839;BME280;18669;53.356;-1.464;2023-04-25T14:14:40;100816.34;;;24.95;20.33
29839;BME280;18669;53.356;-1.464;2023-04-25T14:17:25;100824.56;;;25.39;19.56
29839;BME280;18669;53.356;-1.464;2023-04-25T14:20:10;100816.00;;;25.45;19.50
29839;BME280;18669;53.356;-1.464;2023-04-25T14:22:56;100813.41;;;26.11;19.35